Time;durP1;ratioP1;P1;durP2;ratioP2;P2;SDS_P1;SDS_P2;PMS_P1;PMS_P2;Temp;Humidity;BMP_temperature;BMP_pressure;BME280_temperature;BME280_humidity;BME280_pressure;Samples;Min_cycle;Max_cycle;Signal;HPM_P1;HPM_P2
2020/12/02 00:02:07;;;;;;;45.13;20.75;;;5.60;99.90;;;;;;5097251;28;20478;-57
2020/12/02 00:04:33;;;;;;;46.53;20.65;;;5.60;99.90;;;;;;5110843;28;20428;-58
2020/12/02 00:06:59;;;;;;;44.00;21.63;;;5.60;99.90;;;;;;5129953;27;20027;-57
2020/12/02 00:09:24;;;;;;;42.30;21.10;;;5.60;99.90;;;;;;5131339;27;20381;-58
2020/12/02 00:11:51;;;;;;;44.80;19.65;;;5.60;99.90;;;;;;5095266;27;20024;-58
2020/12/02 00:14:28;;;;;;;49.28;20.40;;;5.60;99.90;;;;;;5091205;28;20406;-58
2020/12/02 00:16:55;;;;;;;49.75;21.75;;;5.50;99.90;;;;;;5098444;28;20034;-59
2020/12/02 00:19:22;;;;;;;50.67;23.40;;;5.40;99.90;;;;;;5111029;28;20024;-58
2020/12/02 00:22:06;;;;;;;51.92;22.90;;;5.40;99.90;;;;;;5111009;28;20549;-59
2020/12/02 00:24:33;;;;;;;54.80;23.52;;;5.40;99.90;;;;;;5108891;28;20031;-59
2020/12/02 00:27:20;;;;;;;61.70;24.83;;;5.30;99.90;;;;;;5109626;28;20027;-59
2020/12/02 00:29:46;;;;;;;63.92;25.10;;;5.30;99.90;;;;;;5105236;28;20032;-58
2020/12/02 00:32:34;;;;;;;59.28;25.35;;;5.30;99.90;;;;;;5096929;28;20096;-59
2020/12/02 00:35:00;;;;;;;60.15;25.02;;;5.30;99.90;;;;;;5109429;28;20020;-57
2020/12/02 00:37:27;;;;;;;62.50;27.50;;;5.30;99.90;;;;;;5102851;28;20481;-59
2020/12/02 00:39:53;;;;;;;60.83;26.50;;;5.30;99.90;;;;;;5089809;28;20025;-58
2020/12/02 00:42:20;;;;;;;55.90;24.80;;;5.20;99.90;;;;;;5090175;28;20371;-59
2020/12/02 00:44:46;;;;;;;65.32;26.05;;;5.30;99.90;;;;;;5087772;28;20032;-57
2020/12/02 00:47:18;;;;;;;63.22;25.05;;;5.20;99.90;;;;;;5090368;28;20020;-60
2020/12/02 00:49:47;;;;;;;58.33;23.73;;;5.20;99.90;;;;;;5090480;28;20103;-59
2020/12/02 00:52:13;;;;;;;45.25;22.80;;;5.40;99.90;;;;;;5109461;28;20374;-59
2020/12/02 00:54:38;;;;;;;53.17;23.02;;;5.40;99.90;;;;;;5109333;28;20107;-59
2020/12/02 00:57:04;;;;;;;55.28;24.20;;;5.50;99.90;;;;;;5108923;28;20031;-59
2020/12/02 00:59:31;;;;;;;49.63;22.58;;;5.50;99.90;;;;;;5109085;28;20382;-59
2020/12/02 01:02:30;;;;;;;50.67;23.55;;;5.50;99.90;;;;;;5104839;28;20024;-59
2020/12/02 01:04:58;;;;;;;56.15;24.27;;;5.50;99.90;;;;;;5068290;28;20543;-59
2020/12/02 01:07:25;;;;;;;53.45;23.13;;;5.50;99.90;;;;;;5108684;28;20031;-59
2020/12/02 01:09:51;;;;;;;53.83;23.60;;;5.50;99.90;;;;;;5110268;28;20553;-58
2020/12/02 01:12:18;;;;;;;52.17;22.95;;;5.50;99.90;;;;;;5110040;28;20031;-59
2020/12/02 01:14:46;;;;;;;63.35;26.92;;;5.50;99.90;;;;;;5108822;28;20479;-59
2020/12/02 01:17:13;;;;;;;61.60;24.40;;;5.60;99.90;;;;;;5107367;28;20334;-58
2020/12/02 01:19:39;;;;;;;57.63;23.85;;;5.50;99.90;;;;;;5109149;28;20024;-58
2020/12/02 01:22:32;;;;;;;53.25;22.48;;;5.50;99.90;;;;;;5109394;28;20048;-59
2020/12/02 01:25:16;;;;;;;57.60;23.73;;;5.50;99.90;;;;;;5109027;28;20386;-58
2020/12/02 01:27:54;;;;;;;55.28;23.98;;;5.50;99.90;;;;;;5109289;28;20021;-57
2020/12/02 01:30:21;;;;;;;51.88;22.15;;;5.50;99.90;;;;;;5109820;28;20051;-57
2020/12/02 01:32:49;;;;;;;61.80;23.52;;;5.50;99.90;;;;;;5094422;28;20471;-57
2020/12/02 01:35:22;;;;;;;58.17;24.90;;;5.50;99.90;;;;;;5093260;28;20374;-58
2020/12/02 01:37:56;;;;;;;60.63;24.00;;;5.40;99.90;;;;;;5108066;28;20031;-58
2020/12/02 01:40:27;;;;;;;45.38;16.30;;;5.40;99.90;;;;;;5109449;28;20027;-58
2020/12/02 01:43:19;;;;;;;53.92;22.48;;;5.40;99.90;;;;;;5108996;28;20016;-58
2020/12/02 01:45:53;;;;;;;50.92;21.70;;;5.30;99.90;;;;;;5100631;28;20513;-59
2020/12/02 01:48:38;;;;;;;57.50;25.02;;;5.30;99.90;;;;;;5089422;28;20073;-58
2020/12/02 01:51:22;;;;;;;50.97;24.83;;;5.30;99.90;;;;;;5100014;28;20491;-57
2020/12/02 01:54:00;;;;;;;59.22;24.42;;;5.30;99.90;;;;;;5109722;28;20035;-58
2020/12/02 01:56:44;;;;;;;57.00;25.10;;;5.30;99.90;;;;;;5107883;28;20036;-58
2020/12/02 01:59:24;;;;;;;60.65;24.60;;;5.30;99.90;;;;;;5109077;28;20028;-57
2020/12/02 02:02:36;;;;;;;64.80;23.90;;;5.30;99.90;;;;;;5093009;28;20020;-58
2020/12/02 02:05:15;;;;;;;52.50;23.75;;;5.30;99.90;;;;;;5083631;28;20048;-58
2020/12/02 02:07:41;;;;;;;53.40;23.02;;;5.30;99.90;;;;;;5108272;28;20498;-59
2020/12/02 02:10:18;;;;;;;54.92;24.00;;;5.30;99.90;;;;;;5111524;28;20023;-59
2020/12/02 02:12:56;;;;;;;52.92;23.40;;;5.40;99.90;;;;;;5113478;28;20031;-58
2020/12/02 02:15:39;;;;;;;44.35;19.92;;;5.30;99.90;;;;;;5092039;28;20071;-57
2020/12/02 02:18:24;;;;;;;42.45;19.33;;;5.30;99.90;;;;;;5093498;28;20392;-57
2020/12/02 02:20:57;;;;;;;40.17;20.55;;;5.30;99.90;;;;;;5114609;27;20029;-58
2020/12/02 02:23:23;;;;;;;47.87;20.03;;;5.20;99.90;;;;;;5118175;27;20020;-58
2020/12/02 02:26:01;;;;;;;48.78;20.40;;;5.30;99.90;;;;;;5091819;28;20744;-58
2020/12/02 02:28:29;;;;;;;51.67;20.88;;;5.30;99.90;;;;;;5102242;28;20092;-58
2020/12/02 02:30:54;;;;;;;46.42;20.20;;;5.30;99.90;;;;;;5113242;28;20109;-58
2020/12/02 02:33:21;;;;;;;44.47;20.25;;;5.30;99.90;;;;;;5112360;28;20522;-58
2020/12/02 02:35:47;;;;;;;45.63;20.48;;;5.30;99.90;;;;;;5111257;28;20040;-58
2020/12/02 02:38:13;;;;;;;40.78;21.25;;;5.30;99.90;;;;;;5112576;28;20510;-57
2020/12/02 02:40:38;;;;;;;52.72;22.13;;;5.20;99.90;;;;;;5113643;28;20031;-58
2020/12/02 02:43:05;;;;;;;48.78;21.90;;;5.20;99.90;;;;;;5102339;28;20485;-59
2020/12/02 02:45:30;;;;;;;34.50;18.92;;;5.20;99.90;;;;;;5091114;28;20071;-58
2020/12/02 02:47:58;;;;;;;45.85;19.65;;;5.20;99.90;;;;;;5092342;28;20060;-58
2020/12/02 02:50:25;;;;;;;43.22;20.50;;;5.30;99.90;;;;;;5098538;28;20073;-58
2020/12/02 02:52:53;;;;;;;39.95;17.90;;;5.30;99.90;;;;;;5112000;28;20065;-57
2020/12/02 02:55:22;;;;;;;39.97;18.52;;;5.30;99.90;;;;;;5111661;28;20024;-57
2020/12/02 02:57:48;;;;;;;46.15;19.50;;;5.40;99.90;;;;;;5111547;28;20405;-58
2020/12/02 03:00:18;;;;;;;41.33;20.45;;;5.30;99.90;;;;;;5112790;28;20030;-58
2020/12/02 03:02:44;;;;;;;43.90;21.17;;;5.30;99.90;;;;;;5112100;28;20024;-59
2020/12/02 03:05:10;;;;;;;43.50;20.33;;;5.20;99.90;;;;;;5115471;27;20398;-59
2020/12/02 03:07:39;;;;;;;45.20;22.05;;;5.10;99.90;;;;;;5131821;27;20023;-59
2020/12/02 03:10:05;;;;;;;42.97;20.77;;;5.10;99.90;;;;;;5126233;27;20066;-59
2020/12/02 03:12:31;;;;;;;40.22;20.17;;;5.10;99.90;;;;;;5111191;28;20059;-59
2020/12/02 03:14:57;;;;;;;46.50;20.10;;;5.10;99.90;;;;;;5112608;28;20016;-58
2020/12/02 03:17:24;;;;;;;40.28;19.70;;;5.00;99.90;;;;;;5103172;28;20028;-59
2020/12/02 03:20:02;;;;;;;42.67;20.73;;;5.00;99.90;;;;;;5093007;28;20451;-59
2020/12/02 03:22:29;;;;;;;46.78;21.38;;;5.00;99.90;;;;;;5108469;28;20028;-58
2020/12/02 03:24:57;;;;;;;45.88;20.98;;;5.10;99.90;;;;;;5101759;28;20107;-58
2020/12/02 03:27:23;;;;;;;39.88;19.63;;;5.10;99.90;;;;;;5111906;28;20390;-56
2020/12/02 03:29:49;;;;;;;44.97;20.88;;;5.10;99.90;;;;;;5096211;28;20107;-57
2020/12/02 03:32:15;;;;;;;44.33;21.95;;;5.20;99.90;;;;;;5091651;28;20135;-57
2020/12/02 03:34:40;;;;;;;39.70;20.85;;;5.20;99.90;;;;;;5091535;28;20038;-55
2020/12/02 03:37:06;;;;;;;41.88;19.80;;;5.20;99.90;;;;;;5110852;28;20032;-59
2020/12/02 03:39:31;;;;;;;39.60;20.02;;;5.20;99.90;;;;;;5111492;28;20470;-59
2020/12/02 03:41:57;;;;;;;38.38;19.30;;;5.20;99.90;;;;;;5100535;28;20028;-59
2020/12/02 03:44:23;;;;;;;38.80;19.42;;;5.10;99.90;;;;;;5111728;28;20475;-58
2020/12/02 03:46:48;;;;;;;43.50;20.70;;;5.10;99.90;;;;;;5105522;28;20035;-59
2020/12/02 03:49:14;;;;;;;35.45;19.00;;;5.00;99.90;;;;;;5092261;28;20375;-59
2020/12/02 03:51:39;;;;;;;37.25;19.17;;;5.00;99.90;;;;;;5106445;28;20031;-59
2020/12/02 03:54:06;;;;;;;41.45;21.35;;;5.00;99.90;;;;;;5111688;28;20057;-59
2020/12/02 03:56:31;;;;;;;34.38;18.83;;;5.10;99.90;;;;;;5110958;28;20031;-57
2020/12/02 03:58:57;;;;;;;38.67;19.75;;;5.00;99.90;;;;;;5098210;28;20032;-59
2020/12/02 04:01:22;;;;;;;36.15;17.90;;;5.00;99.90;;;;;;5091452;28;20035;-59
2020/12/02 04:03:48;;;;;;;31.00;17.48;;;5.00;99.90;;;;;;5112000;28;20024;-56
2020/12/02 04:06:15;;;;;;;36.72;19.27;;;5.10;99.90;;;;;;5110346;28;20079;-57
2020/12/02 04:08:43;;;;;;;33.80;18.13;;;5.10;99.90;;;;;;5111652;28;20061;-56
2020/12/02 04:11:10;;;;;;;40.60;19.08;;;5.10;99.90;;;;;;5110567;28;20027;-57
2020/12/02 04:13:36;;;;;;;39.05;19.95;;;5.00;99.90;;;;;;5093469;28;20110;-58
2020/12/02 04:16:03;;;;;;;36.20;19.83;;;5.00;99.90;;;;;;5090188;28;20471;-57
2020/12/02 04:18:29;;;;;;;39.30;19.55;;;5.10;99.90;;;;;;5106969;28;20039;-57
2020/12/02 04:20:55;;;;;;;41.80;20.63;;;5.10;99.90;;;;;;5101804;28;20032;-57
2020/12/02 04:23:21;;;;;;;39.60;18.85;;;5.10;99.90;;;;;;5098230;28;20023;-57
2020/12/02 04:25:46;;;;;;;38.72;18.60;;;5.10;99.90;;;;;;5110036;28;20031;-58
2020/12/02 04:28:13;;;;;;;33.67;18.67;;;5.10;99.90;;;;;;5095412;28;20032;-56
2020/12/02 04:30:39;;;;;;;39.50;18.98;;;5.20;99.90;;;;;;5090426;28;20067;-54
2020/12/02 04:33:04;;;;;;;34.33;18.15;;;5.20;99.90;;;;;;5090497;28;20032;-56
2020/12/02 04:35:30;;;;;;;39.85;19.20;;;5.10;99.90;;;;;;5096044;28;20020;-57
2020/12/02 04:37:55;;;;;;;37.05;18.67;;;5.10;99.90;;;;;;5100103;28;20569;-57
2020/12/02 04:40:34;;;;;;;36.47;18.48;;;5.10;99.90;;;;;;5090482;28;20154;-57
2020/12/02 04:43:21;;;;;;;40.33;18.98;;;5.20;99.90;;;;;;5089941;28;20538;-57
2020/12/02 04:45:48;;;;;;;42.10;20.05;;;5.10;99.90;;;;;;5089903;28;20032;-57
2020/12/02 04:48:18;;;;;;;42.75;19.60;;;5.00;99.90;;;;;;5089655;28;20063;-57
2020/12/02 04:50:44;;;;;;;36.97;19.58;;;5.00;99.90;;;;;;5107028;27;20023;-57
2020/12/02 04:53:20;;;;;;;40.03;19.23;;;5.00;99.90;;;;;;5125561;27;20033;-56
2020/12/02 04:55:48;;;;;;;37.50;18.95;;;5.00;99.90;;;;;;5109112;28;20027;-56
2020/12/02 04:58:24;;;;;;;33.72;17.08;;;4.90;99.90;;;;;;5109208;28;20040;-57
2020/12/02 05:00:50;;;;;;;29.67;17.38;;;5.00;99.90;;;;;;5110197;28;20023;-55
2020/12/02 05:03:16;;;;;;;48.20;18.65;;;5.00;99.90;;;;;;5101623;28;20016;-58
2020/12/02 05:05:42;;;;;;;41.88;20.25;;;4.90;99.90;;;;;;5099552;28;20059;-56
2020/12/02 05:08:23;;;;;;;37.33;18.88;;;5.00;99.90;;;;;;5110369;27;20100;-57
2020/12/02 05:10:49;;;;;;;32.80;18.27;;;5.10;99.90;;;;;;5110347;28;20051;-57
2020/12/02 05:13:14;;;;;;;34.90;19.05;;;5.10;99.90;;;;;;5108689;28;20035;-56
2020/12/02 05:15:40;;;;;;;40.40;19.15;;;5.00;99.90;;;;;;5102125;28;20107;-55
2020/12/02 05:18:14;;;;;;;35.22;17.95;;;4.90;99.90;;;;;;5107842;28;20035;-56
2020/12/02 05:20:41;;;;;;;36.13;18.15;;;5.00;99.90;;;;;;5109200;28;20020;-56
2020/12/02 05:23:17;;;;;;;43.13;20.70;;;5.10;99.90;;;;;;5098086;28;20115;-56
2020/12/02 05:25:43;;;;;;;34.05;18.08;;;5.10;99.90;;;;;;5093803;28;20031;-55
2020/12/02 05:28:20;;;;;;;37.58;18.58;;;5.10;99.90;;;;;;5109958;28;20028;-56
2020/12/02 05:30:46;;;;;;;31.67;17.60;;;5.10;99.90;;;;;;5110503;28;20436;-55
2020/12/02 05:33:12;;;;;;;35.53;19.65;;;5.10;99.90;;;;;;5109103;28;20027;-58
2020/12/02 05:35:53;;;;;;;35.65;19.40;;;5.10;99.90;;;;;;5104564;28;20482;-56
2020/12/02 05:38:30;;;;;;;36.92;18.98;;;5.00;99.90;;;;;;5109434;28;20020;-56
2020/12/02 05:40:57;;;;;;;34.38;17.95;;;5.00;99.90;;;;;;5109368;28;20019;-58
2020/12/02 05:43:30;;;;;;;32.47;19.63;;;5.00;99.90;;;;;;5109011;28;20542;-57
2020/12/02 05:45:58;;;;;;;38.33;19.88;;;5.10;99.90;;;;;;5105338;28;20035;-57
2020/12/02 05:48:27;;;;;;;35.33;19.10;;;5.00;99.90;;;;;;5108644;28;20051;-56
2020/12/02 05:50:55;;;;;;;30.25;18.08;;;5.00;99.90;;;;;;5105864;27;20039;-56
2020/12/02 05:53:32;;;;;;;34.75;19.20;;;5.10;99.90;;;;;;5096464;27;20032;-57
2020/12/02 05:55:59;;;;;;;35.47;18.50;;;5.10;99.90;;;;;;5089353;28;20547;-56
2020/12/02 05:58:28;;;;;;;36.90;17.85;;;5.10;99.90;;;;;;5101736;28;20028;-57
2020/12/02 06:00:53;;;;;;;36.55;19.25;;;5.10;99.90;;;;;;5104078;28;20020;-56
2020/12/02 06:03:22;;;;;;;36.58;17.95;;;5.00;99.90;;;;;;5097136;28;20032;-55
2020/12/02 06:05:48;;;;;;;38.25;18.85;;;4.90;99.90;;;;;;5098243;28;20036;-57
2020/12/02 06:08:42;;;;;;;35.72;19.20;;;4.90;99.90;;;;;;5108542;28;20047;-55
2020/12/02 06:11:16;;;;;;;38.25;18.60;;;5.00;99.90;;;;;;5088681;28;20116;-56
2020/12/02 06:13:47;;;;;;;;;;;5.00;99.90;;;;;;5089372;28;20033;-57
2020/12/02 06:16:24;;;;;;;42.55;19.40;;;5.00;99.90;;;;;;5104507;28;20374;-56
2020/12/02 06:18:49;;;;;;;37.22;19.23;;;5.10;99.90;;;;;;5102773;28;20027;-56
2020/12/02 06:21:52;;;;;;;39.83;18.25;;;5.10;99.90;;;;;;5112313;28;20016;-56
2020/12/02 06:24:41;;;;;;;31.25;17.45;;;5.10;99.90;;;;;;5090690;28;20036;-56
2020/12/02 06:27:16;;;;;;;34.90;18.73;;;5.10;99.90;;;;;;5099102;28;20490;-57
2020/12/02 06:29:44;;;;;;;41.80;19.55;;;5.10;99.90;;;;;;5092818;28;20129;-57
2020/12/02 06:32:19;;;;;;;35.10;19.52;;;5.10;99.90;;;;;;5098095;28;20193;-57
2020/12/02 06:34:46;;;;;;;39.45;21.17;;;5.10;99.90;;;;;;5094850;28;20092;-57
2020/12/02 06:37:20;;;;;;;37.70;20.15;;;5.00;99.90;;;;;;5107936;28;20050;-58
2020/12/02 06:39:48;;;;;;;39.97;21.52;;;5.00;99.90;;;;;;5104509;28;20027;-56
2020/12/02 06:42:24;;;;;;;39.00;20.88;;;5.00;99.90;;;;;;5105836;28;20215;-57
2020/12/02 06:45:24;;;;;;;37.72;20.95;;;5.00;99.90;;;;;;5108430;28;20474;-57
2020/12/02 06:47:49;;;;;;;33.08;18.20;;;5.00;99.90;;;;;;5100127;28;20028;-58
2020/12/02 06:50:20;;;;;;;40.95;19.17;;;5.00;99.90;;;;;;5108200;28;20057;-57
2020/12/02 06:52:46;;;;;;;35.40;19.05;;;5.10;99.90;;;;;;5098793;28;20032;-56
2020/12/02 06:55:27;;;;;;;34.75;18.95;;;5.10;99.90;;;;;;5087649;28;20028;-57
2020/12/02 06:58:15;;;;;;;37.22;19.63;;;5.10;99.90;;;;;;5092058;28;20027;-57
2020/12/02 07:00:47;;;;;;;36.00;19.83;;;5.10;99.90;;;;;;5089559;28;20051;-55
2020/12/02 07:03:21;;;;;;;36.42;18.80;;;5.00;99.90;;;;;;5111706;28;20500;-53
2020/12/02 07:05:49;;;;;;;36.40;19.10;;;5.00;99.90;;;;;;5103093;28;20437;-53
2020/12/02 07:08:18;;;;;;;36.25;19.40;;;4.90;99.90;;;;;;5112605;28;20059;-56
2020/12/02 07:11:02;;;;;;;42.28;20.42;;;4.90;99.90;;;;;;5114200;27;20031;-56
2020/12/02 07:13:30;;;;;;;27.60;15.20;;;4.90;99.90;;;;;;5099483;28;20399;-54
2020/12/02 07:15:55;;;;;;;33.97;18.92;;;4.90;99.90;;;;;;5110199;28;20032;-56
2020/12/02 07:18:24;;;;;;;33.97;19.33;;;5.00;99.90;;;;;;5110439;28;20027;-54
2020/12/02 07:21:00;;;;;;;39.60;19.73;;;5.00;99.90;;;;;;5095576;28;20028;-53
2020/12/02 07:23:30;;;;;;;38.85;20.52;;;5.00;99.90;;;;;;5093099;28;20016;-53
2020/12/02 07:25:56;;;;;;;42.00;24.00;;;5.00;99.90;;;;;;5113707;27;20023;-54
2020/12/02 07:28:22;;;;;;;41.28;20.38;;;4.90;99.90;;;;;;5112221;27;20042;-57
2020/12/02 07:30:48;;;;;;;39.13;20.48;;;4.90;99.90;;;;;;5103201;27;20036;-57
2020/12/02 07:33:23;;;;;;;33.83;18.40;;;4.90;99.90;;;;;;5105328;28;20510;-56
2020/12/02 07:36:03;;;;;;;42.58;19.55;;;4.90;99.90;;;;;;5105931;27;20598;-56
2020/12/02 07:38:29;;;;;;;34.78;19.45;;;5.00;99.90;;;;;;5110126;28;20055;-56
2020/12/02 07:41:05;;;;;;;35.92;19.60;;;4.90;99.90;;;;;;5095219;28;20069;-56
2020/12/02 07:43:31;;;;;;;44.97;21.17;;;4.90;99.90;;;;;;5120606;27;20107;-57
2020/12/02 07:45:58;;;;;;;40.05;19.45;;;5.00;99.90;;;;;;5110935;27;20115;-53
2020/12/02 07:48:28;;;;;;;37.28;20.50;;;4.90;99.90;;;;;;5110665;28;20311;-58
2020/12/02 07:51:00;;;;;;;45.85;22.73;;;4.90;99.90;;;;;;5113683;27;20435;-55
2020/12/02 07:54:03;;;;;;;39.45;21.10;;;4.90;99.90;;;;;;5112259;28;20020;-57
2020/12/02 07:56:33;;;;;;;41.58;20.13;;;4.90;99.90;;;;;;5074152;28;20052;-58
2020/12/02 07:59:26;;;;;;;38.63;21.67;;;4.90;99.90;;;;;;5091606;28;20043;-57
2020/12/02 08:01:52;;;;;;;41.78;22.50;;;5.00;99.90;;;;;;5106313;27;20027;-57
2020/12/02 08:04:20;;;;;;;34.85;19.20;;;4.90;99.90;;;;;;5102309;28;20020;-56
2020/12/02 08:07:08;;;;;;;44.60;20.55;;;5.00;99.90;;;;;;5103555;27;20053;-57
2020/12/02 08:09:40;;;;;;;38.83;20.05;;;5.00;99.90;;;;;;5100209;28;20037;-55
2020/12/02 08:12:10;;;;;;;39.20;19.50;;;5.00;99.90;;;;;;5097442;28;20107;-56
2020/12/02 08:14:40;;;;;;;41.15;21.25;;;5.00;99.90;;;;;;5097068;28;20066;-58
2020/12/02 08:17:24;;;;;;;36.22;19.85;;;5.00;99.90;;;;;;5090875;28;20024;-56
2020/12/02 08:19:53;;;;;;;42.47;22.77;;;5.00;99.90;;;;;;5094260;27;20032;-56
2020/12/02 08:22:26;;;;;;;40.13;22.75;;;5.00;99.90;;;;;;5107235;27;20036;-57
2020/12/02 08:25:24;;;;;;;39.67;20.80;;;5.00;99.90;;;;;;5097375;28;20028;-56
2020/12/02 08:27:52;;;;;;;41.50;21.95;;;5.00;99.90;;;;;;5089215;28;20028;-62
2020/12/02 08:30:24;;;;;;;35.90;20.77;;;4.90;99.90;;;;;;5104289;28;20223;-62
2020/12/02 08:33:12;;;;;;;37.83;21.83;;;4.90;99.90;;;;;;5108227;28;20368;-62
2020/12/02 08:35:41;;;;;;;42.67;21.85;;;4.90;99.90;;;;;;5091334;28;20414;-62
2020/12/02 08:38:14;;;;;;;43.47;20.95;;;5.00;99.90;;;;;;5100789;28;20032;-62
2020/12/02 08:40:43;;;;;;;38.50;21.70;;;5.00;99.90;;;;;;5109416;28;20033;-62
2020/12/02 08:43:17;;;;;;;39.35;21.10;;;5.00;99.90;;;;;;5101576;28;20047;-62
2020/12/02 08:45:56;;;;;;;39.00;21.75;;;5.00;99.90;;;;;;5104900;28;20032;-62
2020/12/02 08:48:22;;;;;;;40.65;21.17;;;5.00;99.90;;;;;;5101975;28;20035;-61
2020/12/02 08:50:48;;;;;;;44.78;22.48;;;5.00;99.90;;;;;;5091269;28;20038;-61
2020/12/02 08:53:28;;;;;;;43.20;22.23;;;5.00;99.90;;;;;;5100649;28;20118;-61
2020/12/02 08:55:55;;;;;;;40.70;22.38;;;5.00;99.90;;;;;;5104432;28;20137;-60
2020/12/02 08:58:21;;;;;;;40.25;22.02;;;5.10;99.90;;;;;;5097744;28;20044;-60
2020/12/02 09:00:47;;;;;;;40.33;21.45;;;5.20;99.90;;;;;;5092552;28;20107;-59
2020/12/02 09:03:14;;;;;;;38.95;21.38;;;5.20;99.90;;;;;;5088641;28;20063;-61
2020/12/02 09:05:39;;;;;;;37.22;18.63;;;5.30;99.90;;;;;;5095329;28;20069;-61
2020/12/02 09:08:05;;;;;;;39.28;20.15;;;5.20;99.90;;;;;;5096905;28;20027;-61
2020/12/02 09:10:30;;;;;;;35.88;20.02;;;5.30;99.90;;;;;;5109615;28;20034;-61
2020/12/02 09:12:57;;;;;;;31.02;17.67;;;5.30;99.90;;;;;;5109485;28;20026;-62
2020/12/02 09:15:23;;;;;;;28.80;16.85;;;5.30;99.90;;;;;;5098786;28;20111;-62
2020/12/02 09:17:49;;;;;;;29.55;17.15;;;5.30;99.90;;;;;;5100093;28;20028;-62
2020/12/02 09:20:16;;;;;;;28.95;15.57;;;5.30;99.90;;;;;;5094394;23;20048;-61
2020/12/02 09:22:42;;;;;;;26.33;16.23;;;5.40;99.90;;;;;;5047583;28;20029;-60
2020/12/02 09:25:07;;;;;;;28.40;16.05;;;5.40;99.90;;;;;;5047797;28;20021;-59
2020/12/02 09:27:34;;;;;;;28.65;15.25;;;5.40;99.90;;;;;;5048056;28;20091;-58
2020/12/02 09:30:00;;;;;;;29.45;16.15;;;5.40;99.90;;;;;;5054434;28;20521;-59
2020/12/02 09:32:25;;;;;;;24.13;13.63;;;5.40;99.90;;;;;;5061531;28;20033;-60
2020/12/02 09:34:51;;;;;;;23.02;13.45;;;5.30;99.90;;;;;;5051022;28;20107;-60
2020/12/02 09:37:18;;;;;;;25.38;14.77;;;5.30;99.90;;;;;;5049762;28;20472;-59
2020/12/02 09:39:44;;;;;;;19.63;12.13;;;5.30;99.90;;;;;;5063174;28;20471;-59
2020/12/02 09:42:18;;;;;;;24.70;14.93;;;5.30;99.90;;;;;;5058752;28;20107;-59
2020/12/02 09:44:53;;;;;;;26.50;14.15;;;5.30;99.90;;;;;;5066212;28;20487;-59
2020/12/02 09:47:19;;;;;;;23.55;14.27;;;5.20;99.90;;;;;;5050927;28;20378;-60
2020/12/02 09:49:47;;;;;;;24.33;13.65;;;5.20;99.90;;;;;;5055561;28;20043;-59
2020/12/02 09:52:12;;;;;;;24.17;14.38;;;5.10;99.90;;;;;;5048894;28;20507;-61
2020/12/02 09:54:41;;;;;;;28.20;15.38;;;5.10;99.90;;;;;;5061246;28;20072;-58
2020/12/02 09:57:18;;;;;;;35.90;16.60;;;5.10;99.90;;;;;;5049220;28;20035;-58
2020/12/02 09:59:44;;;;;;;28.38;15.50;;;5.20;99.90;;;;;;5062923;28;20036;-58
2020/12/02 10:02:47;;;;;;;29.92;15.70;;;5.10;99.90;;;;;;5045952;28;20021;-60
2020/12/02 10:05:37;;;;;;;28.38;16.40;;;5.10;99.90;;;;;;5048966;28;20052;-60
2020/12/02 10:08:10;;;;;;;28.35;15.73;;;5.20;99.90;;;;;;5044688;28;20037;-60
2020/12/02 10:11:02;;;;;;;26.70;15.10;;;5.20;99.90;;;;;;5050539;28;20039;-61
2020/12/02 10:13:46;;;;;;;27.67;15.32;;;5.20;99.90;;;;;;5057508;28;20372;-60
2020/12/02 10:16:17;;;;;;;26.80;15.18;;;5.20;99.90;;;;;;5064545;28;20021;-61
2020/12/02 10:19:05;;;;;;;29.48;15.75;;;5.30;99.90;;;;;;5046814;28;20045;-59
2020/12/02 10:21:57;;;;;;;25.15;15.70;;;5.40;99.90;;;;;;5046963;28;20025;-60
2020/12/02 10:24:58;;;;;;;24.50;14.23;;;5.50;99.90;;;;;;5037078;28;20037;-60
2020/12/02 10:27:31;;;;;;;24.08;13.95;;;5.40;99.90;;;;;;5049957;28;20085;-60
2020/12/02 10:30:13;;;;;;;22.77;13.33;;;5.50;99.90;;;;;;5049188;28;20478;-61
2020/12/02 10:33:06;;;;;;;21.45;13.85;;;5.60;99.90;;;;;;5051590;28;20033;-61
2020/12/02 10:35:40;;;;;;;25.08;14.80;;;5.70;99.90;;;;;;5056003;28;20033;-60
2020/12/02 10:38:12;;;;;;;23.58;14.40;;;5.70;99.90;;;;;;5048122;28;20029;-61
2020/12/02 10:40:42;;;;;;;23.92;13.52;;;5.80;99.90;;;;;;5051923;28;20062;-60
2020/12/02 10:43:23;;;;;;;18.48;12.18;;;5.90;99.90;;;;;;5063875;28;20457;-61
2020/12/02 10:45:52;;;;;;;20.83;11.40;;;5.70;99.90;;;;;;5059354;28;20024;-58
2020/12/02 10:48:39;;;;;;;19.63;12.18;;;5.70;99.90;;;;;;5050266;28;20037;-60
2020/12/02 10:51:08;;;;;;;21.23;12.32;;;5.80;99.90;;;;;;5048902;28;20043;-61
2020/12/02 10:53:33;;;;;;;19.30;11.73;;;5.80;99.90;;;;;;5049547;28;20033;-61
2020/12/02 10:55:59;;;;;;;16.83;10.88;;;5.90;99.90;;;;;;5065696;28;20501;-61
2020/12/02 10:58:29;;;;;;;18.75;11.43;;;6.00;99.90;;;;;;5049419;28;20071;-60
2020/12/02 11:00:57;;;;;;;18.73;11.60;;;6.00;99.90;;;;;;5053656;28;20126;-59
2020/12/02 11:03:32;;;;;;;19.08;9.43;;;6.00;99.90;;;;;;5056739;28;20045;-59
2020/12/02 11:06:10;;;;;;;15.85;9.63;;;6.00;99.90;;;;;;5053592;28;20628;-58
2020/12/02 11:08:52;;;;;;;15.55;9.93;;;6.00;99.90;;;;;;5050314;28;20036;-59
2020/12/02 11:11:58;;;;;;;16.40;9.48;;;6.00;99.90;;;;;;5047226;28;20459;-59
2020/12/02 11:15:02;;;;;;;15.70;9.57;;;6.10;99.90;;;;;;5065431;28;20081;-58
2020/12/02 11:17:30;;;;;;;13.77;8.48;;;6.00;99.90;;;;;;5052116;28;20116;-59
2020/12/02 11:20:13;;;;;;;14.57;9.80;;;6.10;99.90;;;;;;5050916;28;20197;-59
2020/12/02 11:22:53;;;;;;;14.68;9.27;;;6.10;99.90;;;;;;5047742;28;20503;-61
2020/12/02 11:25:43;;;;;;;16.88;10.18;;;6.00;99.90;;;;;;5054709;28;20120;-59
2020/12/02 11:28:10;;;;;;;15.88;10.23;;;6.00;99.90;;;;;;5057460;28;20033;-60
2020/12/02 11:30:40;;;;;;;15.75;10.02;;;6.00;99.90;;;;;;5065143;28;20036;-59
2020/12/02 11:33:30;;;;;;;17.75;10.38;;;6.10;99.90;;;;;;5052154;28;20036;-64
2020/12/02 11:36:18;;;;;;;17.52;11.32;;;6.00;99.90;;;;;;5047517;28;20071;-60
2020/12/02 11:38:46;;;;;;;16.15;9.77;;;5.90;99.90;;;;;;5047482;28;20033;-61
2020/12/02 11:41:27;;;;;;;20.05;11.95;;;6.00;99.90;;;;;;5060991;28;20029;-61
2020/12/02 11:43:58;;;;;;;18.17;10.98;;;5.90;99.90;;;;;;5047422;28;20549;-58
2020/12/02 11:46:26;;;;;;;18.08;11.10;;;5.90;99.90;;;;;;5060153;28;20044;-60
2020/12/02 11:49:02;;;;;;;19.15;11.48;;;5.80;99.90;;;;;;5047409;28;20033;-60
2020/12/02 11:52:00;;;;;;;15.95;10.68;;;5.80;99.90;;;;;;5046992;28;20029;-58
2020/12/02 11:54:26;;;;;;;21.67;12.75;;;5.80;99.90;;;;;;5047256;28;20032;-60
2020/12/02 11:56:53;;;;;;;23.92;13.20;;;5.80;99.90;;;;;;5046591;28;20025;-60
2020/12/02 11:59:25;;;;;;;20.95;13.30;;;5.90;99.90;;;;;;5046786;28;20075;-59
2020/12/02 12:01:54;;;;;;;26.20;13.75;;;5.90;99.90;;;;;;5046830;28;20025;-61
2020/12/02 12:04:32;;;;;;;19.63;12.52;;;5.90;99.90;;;;;;5047603;28;20104;-58
2020/12/02 12:07:07;;;;;;;22.45;13.25;;;5.90;99.90;;;;;;5046277;28;20029;-59
2020/12/02 12:09:48;;;;;;;21.50;13.20;;;5.90;99.90;;;;;;5047360;28;20106;-60
2020/12/02 12:12:37;;;;;;;19.58;12.07;;;5.90;99.90;;;;;;5046743;28;20036;-58
2020/12/02 12:15:14;;;;;;;20.00;12.25;;;6.00;99.90;;;;;;5046637;28;20041;-59
2020/12/02 12:17:44;;;;;;;19.52;13.43;;;6.00;99.90;;;;;;5046357;28;20032;-59
2020/12/02 12:20:17;;;;;;;21.40;13.40;;;6.00;99.90;;;;;;5046227;28;20033;-60
2020/12/02 12:22:53;;;;;;;23.35;13.85;;;6.00;99.90;;;;;;5046491;28;20464;-58
2020/12/02 12:25:23;;;;;;;23.77;14.00;;;6.10;99.90;;;;;;5046350;28;20040;-60
2020/12/02 12:27:51;;;;;;;20.30;12.00;;;6.10;99.90;;;;;;5045890;28;20059;-60
2020/12/02 12:30:16;;;;;;;24.92;12.38;;;6.00;99.90;;;;;;5044042;28;20043;-60
2020/12/02 12:32:56;;;;;;;20.67;12.73;;;6.10;99.90;;;;;;5051847;28;20072;-60
2020/12/02 12:35:26;;;;;;;18.95;11.90;;;6.10;99.90;;;;;;5043530;28;20079;-61
2020/12/02 12:38:09;;;;;;;16.38;11.68;;;6.10;99.90;;;;;;5044972;28;20029;-60
2020/12/02 12:40:40;;;;;;;19.35;12.88;;;6.20;99.90;;;;;;5045325;28;20058;-61
2020/12/02 12:43:12;;;;;;;19.75;12.18;;;6.10;99.90;;;;;;5045026;28;20070;-61
2020/12/02 12:45:43;;;;;;;20.70;13.18;;;6.10;99.90;;;;;;5046411;28;20060;-59
2020/12/02 12:48:14;;;;;;;19.58;12.38;;;6.10;99.90;;;;;;5051583;28;20048;-60
2020/12/02 12:50:43;;;;;;;19.55;12.65;;;6.20;99.90;;;;;;5062082;28;20412;-60
2020/12/02 12:53:11;;;;;;;20.52;12.63;;;6.10;99.90;;;;;;5035672;28;20535;-60
2020/12/02 12:55:36;;;;;;;20.95;13.18;;;6.10;99.90;;;;;;5044947;28;20675;-59
2020/12/02 12:58:10;;;;;;;19.65;12.90;;;6.10;99.90;;;;;;5046591;28;20523;-61
2020/12/02 13:00:41;;;;;;;19.85;12.65;;;6.10;99.90;;;;;;5049909;28;20020;-61
2020/12/02 13:03:27;;;;;;;29.17;13.82;;;6.00;99.90;;;;;;5054512;28;20042;-61
2020/12/02 13:06:21;;;;;;;20.60;12.77;;;6.00;99.90;;;;;;5046614;28;20095;-61